Custer, SD

2:25 PM MST on December 10, 2016 (GMT -0700)
Pacer Subdivision | | Change Station

Elev 5558 ft 43.73 °N, 103.60 °W | Updated 27 seconds ago

Scattered Clouds
Scattered Clouds
36.5 °F
Feels Like 36 °F
N
0.0
Wind Variable Wind from West
Gusts 9.0 mph

Today
High -- | Low -- °F
--% Chance of Precip.
Yesterday
High -- | Low -- °F
Precip. -- in
Pressure 29.71 in
Visibility 10.0 miles
Clouds Scattered Clouds 10000 ft
Scattered Clouds 12000 ft
Windchill 36 °F
Dew Point 27 °F
Humidity 68%
Rainfall 0.04 in
Snow Depth Not available.
7:17 AM 4:17 PM
Waxing Gibbous, 86% visible
METAR KCUT 102053Z AUTO 27013G21KT 10SM SCT100 SCT120 03/M04 A2961 RMK AO2 SLP061 T00281039 56027
Pressure 29.71 in
Visibility 10.0 miles
Clouds Scattered Clouds 10000 ft
Scattered Clouds 12000 ft
Windchill 36 °F
Dew Point 27 °F
Humidity 68%
Rainfall 0.04 in
Snow Depth Not available.
7:17 AM 4:17 PM
Waxing Gibbous, 86% visible
METAR KCUT 102053Z AUTO 27013G21KT 10SM SCT100 SCT120 03/M04 A2961 RMK AO2 SLP061 T00281039 56027

10-Day Weather Forecast

Almanac

Astronomy

Dec. 10, 2016 Rise Set
Actual Time
Civil Twilight
Nautical Twilight
Astronomical Twilight
Moon
Length of Visible Light
Length of Day
Tomorrow will be .
, % of the Moon is Illuminated

Today's Extremes

State Highs State Lows

Community

WunderPhotos

Upload Photos

1,956,664 photos uploaded!

WunderBlog® & News

Nearby

Air Quality

  Air Quality AQ Index Pollutant
Not available.

Snow Depth

Station Depth Elevation

Earthquake Activity

City Distance Mag. Time & Date
Minimum magnitude displayed is 2.5.

Coastal Water Temperatures

Place Temperature

Stations

Nearby Weather Stations

Station Location Temp. Windchill Dew Point Humidity Wind Precip. Elev Updated Type
                   

Watches & Warnings

There are currently no watches in effect.